Coral Coast — WDF5120 — position and weather

sailwx.info

Track history (hours):
 
Tides and Currents Weather Stations Pressure Air Temp Water Temp Dewpoint Dewpoint Depression Visibility Wind Speed Wind Dir Waves Ship Positions

Coral Coast

Owner: Dann MarineTowing, LC., Chesapeake City, MD. More information available from US FCC via Universal Licensing System and Coast Guard Vessel Documentation Center.

Last reported at 2015-Jan-06 18:12 UTC. Time now 2015-Jan-26 12:32 UTC.
Position N 40°39' W 074°07'.
Warning: this ship's position is 19 days out of date.

Length 70 m; draft 5.3 m.

Type: Tug. MMSI: 367459570.

Date/timePositionNaut miles runAvg speedWind from/ knotsBaromVisibWave heightAir tempDewpointWater temp
2015-Jan-06 18:12N 40°39' W 074°07'0 0.0
2015-Jan-06 17:24N 40°39' W 074°07'0 0.0
2015-Jan-06 16:32N 40°39' W 074°07'0 0.0
2015-Jan-06 15:32N 40°39' W 074°07'0 0.0
2015-Jan-06 14:28N 40°39' W 074°07'0 0.0
2015-Jan-06 13:33N 40°39' W 074°07'0 0.0
2015-Jan-06 12:33N 40°39' W 074°07'0 0.0
2015-Jan-06 11:33N 40°39' W 074°07'0 0.3
2015-Jan-06 10:33N 40°39' W 074°07'0 0.0
2015-Jan-06 09:33N 40°39' W 074°07'0 0.0
2015-Jan-06 08:33N 40°39' W 074°07'0 0.0
2015-Jan-06 07:33N 40°39' W 074°07'0 0.0
2015-Jan-06 06:33N 40°39' W 074°07'0 0.0
2015-Jan-06 05:33N 40°39' W 074°07'0 0.0
2015-Jan-06 04:33N 40°39' W 074°07'0 0.0
2015-Jan-06 03:33N 40°39' W 074°07'0 0.0
2015-Jan-06 02:33N 40°39' W 074°07'0 0.0
2015-Jan-06 01:33N 40°39' W 074°07'0 0.2
2015-Jan-06 00:33N 40°39' W 074°07'0 0.0
2015-Jan-05 23:16N 40°39' W 074°07'0 0.0
2015-Jan-05 22:33N 40°39' W 074°07'0 0.0
2015-Jan-05 21:33N 40°39' W 074°07'0 0.0
2015-Jan-05 20:33N 40°39' W 074°07'0 0.0
2015-Jan-05 19:33N 40°39' W 074°07'0 0.0
2015-Jan-05 18:33N 40°39' W 074°07'0 0.0
2015-Jan-05 17:33N 40°39' W 074°07'0 0.0
2015-Jan-05 16:33N 40°39' W 074°07'0 0.0
2015-Jan-05 15:33N 40°39' W 074°07'0 0.0
2015-Jan-05 14:33N 40°39' W 074°07'0 0.0
2015-Jan-05 13:33N 40°39' W 074°07'0 0.0
2015-Jan-05 12:33N 40°39' W 074°07'0 0.0
2015-Jan-05 11:33N 40°39' W 074°07'0 0.0
2015-Jan-05 10:33N 40°39' W 074°07'0 0.0
2015-Jan-05 09:33N 40°39' W 074°07'0 0.0
2015-Jan-05 08:33N 40°39' W 074°07'0 0.0
2015-Jan-05 07:33N 40°39' W 074°07'0 0.0
2015-Jan-05 06:33N 40°39' W 074°07'0 0.0
2015-Jan-05 05:33N 40°39' W 074°07'0 0.0
2015-Jan-05 04:32N 40°39' W 074°07'0 0.0
2015-Jan-05 03:27N 40°39' W 074°07'0 0.0
2015-Jan-05 02:26N 40°39' W 074°07'0 0.0
2015-Jan-05 01:33N 40°39' W 074°07'0 0.0
2015-Jan-05 00:29N 40°39' W 074°07'0 0.0
2015-Jan-04 23:32N 40°39' W 074°07'0 0.0
2015-Jan-04 22:32N 40°39' W 074°07'0 0.0
2015-Jan-04 21:33N 40°39' W 074°07'0 0.0
2015-Jan-04 20:33N 40°39' W 074°07'0 0.0
2015-Jan-04 19:32N 40°39' W 074°07'0 0.0
2015-Jan-04 18:33N 40°39' W 074°07'0 0.0
2015-Jan-04 17:33N 40°39' W 074°07'0 0.1
2015-Jan-04 16:33N 40°39' W 074°07'4 4.4
2015-Jan-04 15:33N 40°41' W 074°02'10 8.3
2015-Jan-04 14:24N 40°48' W 073°54'2 2.4
2015-Jan-04 13:33N 40°48' W 073°52'2 1.9
2015-Jan-04 12:32N 40°46' W 073°51'0 0.0
2015-Jan-04 11:32N 40°46' W 073°51'0 0.0
2015-Jan-04 10:24N 40°46' W 073°51'0 0.0
2015-Jan-04 09:32N 40°46' W 073°51'0 0.0
2015-Jan-04 08:15N 40°46' W 073°51'0 0.0
2015-Jan-04 07:28N 40°46' W 073°51'0 0.0
2015-Jan-04 06:27N 40°46' W 073°51'0 0.0
2015-Jan-04 04:31N 40°46' W 073°51'0 0.0
2015-Jan-04 03:31N 40°46' W 073°51'0 0.0
2015-Jan-04 02:31N 40°46' W 073°51'0 0.0
2015-Jan-04 01:26N 40°46' W 073°51'0 0.0
2015-Jan-04 00:09N 40°46' W 073°51'0 0.0
2015-Jan-03 23:18N 40°46' W 073°51'0 0.0
2015-Jan-03 17:17N 40°46' W 073°51'0 0.0
2015-Jan-03 16:27N 40°46' W 073°51'0 0.0
2015-Jan-03 15:24N 40°46' W 073°51'0 0.0
2015-Jan-03 14:33N 40°46' W 073°51'0 0.2
2015-Jan-03 13:22N 40°46' W 073°51'3 4.1
2015-Jan-03 12:33N 40°48' W 073°54'7 7.5
2015-Jan-03 11:33N 40°42' W 074°00'4 3.9
2015-Jan-03 10:33N 40°39' W 074°03'5 4.5
2015-Jan-03 09:29N 40°34' W 074°02'5 5.2
2015-Jan-03 08:33N 40°30' W 073°57'31 6.0
2015-Jan-03 03:23N 39°59' W 073°55'6 7.0
2015-Jan-03 02:33N 39°54' W 073°56'7 7.1
2015-Jan-03 01:33N 39°47' W 073°58'7 7.3
2015-Jan-03 00:33N 39°40' W 074°01'7 7.5
2015-Jan-02 23:33N 39°33' W 074°06'323 7.0
2015-Jan-01 01:19N 34°27' W 076°18'  
2014-Dec-28 01:13N 34°20' W 076°29'8 9.9
2014-Dec-28 00:25N 34°25' W 076°22'9 9.7
2014-Dec-27 23:30N 34°31' W 076°14'  
Track history (hours):
 
Tides and Currents Weather Stations Pressure Air Temp Water Temp Dewpoint Dewpoint Depression Visibility Wind Speed Wind Dir Waves Ship Positions

Coral Coast

Owner: Dann MarineTowing, LC., Chesapeake City, MD. More information available from US FCC via Universal Licensing System and Coast Guard Vessel Documentation Center.

Last reported at 2015-Jan-06 18:12 UTC. Time now 2015-Jan-26 12:32 UTC.
Position N 40°39' W 074°07'.
Warning: this ship's position is 19 days out of date.

Length 70 m; draft 5.3 m.

Type: Tug. MMSI: 367459570.

Date/timePositionNaut miles runAvg speedWind from/ knotsBaromVisibWave heightAir tempDewpointWater temp
2015-Jan-06 18:12N 40°39' W 074°07'0 0.0
2015-Jan-06 17:24N 40°39' W 074°07'0 0.0
2015-Jan-06 16:32N 40°39' W 074°07'0 0.0
2015-Jan-06 15:32N 40°39' W 074°07'0 0.0
2015-Jan-06 14:28N 40°39' W 074°07'0 0.0
2015-Jan-06 13:33N 40°39' W 074°07'0 0.0
2015-Jan-06 12:33N 40°39' W 074°07'0 0.0
2015-Jan-06 11:33N 40°39' W 074°07'0 0.3
2015-Jan-06 10:33N 40°39' W 074°07'0 0.0
2015-Jan-06 09:33N 40°39' W 074°07'0 0.0
2015-Jan-06 08:33N 40°39' W 074°07'0 0.0
2015-Jan-06 07:33N 40°39' W 074°07'0 0.0
2015-Jan-06 06:33N 40°39' W 074°07'0 0.0
2015-Jan-06 05:33N 40°39' W 074°07'0 0.0
2015-Jan-06 04:33N 40°39' W 074°07'0 0.0
2015-Jan-06 03:33N 40°39' W 074°07'0 0.0
2015-Jan-06 02:33N 40°39' W 074°07'0 0.0
2015-Jan-06 01:33N 40°39' W 074°07'0 0.2
2015-Jan-06 00:33N 40°39' W 074°07'0 0.0
2015-Jan-05 23:16N 40°39' W 074°07'0 0.0
2015-Jan-05 22:33N 40°39' W 074°07'0 0.0
2015-Jan-05 21:33N 40°39' W 074°07'0 0.0
2015-Jan-05 20:33N 40°39' W 074°07'0 0.0
2015-Jan-05 19:33N 40°39' W 074°07'0 0.0
2015-Jan-05 18:33N 40°39' W 074°07'0 0.0
2015-Jan-05 17:33N 40°39' W 074°07'0 0.0
2015-Jan-05 16:33N 40°39' W 074°07'0 0.0
2015-Jan-05 15:33N 40°39' W 074°07'0 0.0
2015-Jan-05 14:33N 40°39' W 074°07'0 0.0
2015-Jan-05 13:33N 40°39' W 074°07'0 0.0
2015-Jan-05 12:33N 40°39' W 074°07'0 0.0
2015-Jan-05 11:33N 40°39' W 074°07'0 0.0
2015-Jan-05 10:33N 40°39' W 074°07'0 0.0
2015-Jan-05 09:33N 40°39' W 074°07'0 0.0
2015-Jan-05 08:33N 40°39' W 074°07'0 0.0
2015-Jan-05 07:33N 40°39' W 074°07'0 0.0
2015-Jan-05 06:33N 40°39' W 074°07'0 0.0
2015-Jan-05 05:33N 40°39' W 074°07'0 0.0
2015-Jan-05 04:32N 40°39' W 074°07'0 0.0
2015-Jan-05 03:27N 40°39' W 074°07'0 0.0
2015-Jan-05 02:26N 40°39' W 074°07'0 0.0
2015-Jan-05 01:33N 40°39' W 074°07'0 0.0
2015-Jan-05 00:29N 40°39' W 074°07'0 0.0
2015-Jan-04 23:32N 40°39' W 074°07'0 0.0
2015-Jan-04 22:32N 40°39' W 074°07'0 0.0
2015-Jan-04 21:33N 40°39' W 074°07'0 0.0
2015-Jan-04 20:33N 40°39' W 074°07'0 0.0
2015-Jan-04 19:32N 40°39' W 074°07'0 0.0
2015-Jan-04 18:33N 40°39' W 074°07'0 0.0
2015-Jan-04 17:33N 40°39' W 074°07'0 0.1
2015-Jan-04 16:33N 40°39' W 074°07'4 4.4
2015-Jan-04 15:33N 40°41' W 074°02'10 8.3
2015-Jan-04 14:24N 40°48' W 073°54'2 2.4
2015-Jan-04 13:33N 40°48' W 073°52'2 1.9
2015-Jan-04 12:32N 40°46' W 073°51'0 0.0
2015-Jan-04 11:32N 40°46' W 073°51'0 0.0
2015-Jan-04 10:24N 40°46' W 073°51'0 0.0
2015-Jan-04 09:32N 40°46' W 073°51'0 0.0
2015-Jan-04 08:15N 40°46' W 073°51'0 0.0
2015-Jan-04 07:28N 40°46' W 073°51'0 0.0
2015-Jan-04 06:27N 40°46' W 073°51'0 0.0
2015-Jan-04 04:31N 40°46' W 073°51'0 0.0
2015-Jan-04 03:31N 40°46' W 073°51'0 0.0
2015-Jan-04 02:31N 40°46' W 073°51'0 0.0
2015-Jan-04 01:26N 40°46' W 073°51'0 0.0
2015-Jan-04 00:09N 40°46' W 073°51'0 0.0
2015-Jan-03 23:18N 40°46' W 073°51'0 0.0
2015-Jan-03 17:17N 40°46' W 073°51'0 0.0
2015-Jan-03 16:27N 40°46' W 073°51'0 0.0
2015-Jan-03 15:24N 40°46' W 073°51'0 0.0
2015-Jan-03 14:33N 40°46' W 073°51'0 0.2
2015-Jan-03 13:22N 40°46' W 073°51'3 4.1
2015-Jan-03 12:33N 40°48' W 073°54'7 7.5
2015-Jan-03 11:33N 40°42' W 074°00'4 3.9
2015-Jan-03 10:33N 40°39' W 074°03'5 4.5
2015-Jan-03 09:29N 40°34' W 074°02'5 5.2
2015-Jan-03 08:33N 40°30' W 073°57'31 6.0
2015-Jan-03 03:23N 39°59' W 073°55'6 7.0
2015-Jan-03 02:33N 39°54' W 073°56'7 7.1
2015-Jan-03 01:33N 39°47' W 073°58'7 7.3
2015-Jan-03 00:33N 39°40' W 074°01'7 7.5
2015-Jan-02 23:33N 39°33' W 074°06'323 7.0
2015-Jan-01 01:19N 34°27' W 076°18'  
2014-Dec-28 01:13N 34°20' W 076°29'8 9.9
2014-Dec-28 00:25N 34°25' W 076°22'9 9.7
2014-Dec-27 23:30N 34°31' W 076°14'  

Dump ship's entire track history